Weather at Lavon North Airport [CLOSED]

Public forecast

Using degrees Fahrenheit for public forecast. Weather courtesy of forecast.io.

Closest aviation weather report (METAR) to Lavon North Airport

Closest report is McKinney National Airport, 5.0 nm (9.3 km) NW.

2024/07/19 04:53 (retrieved 33 minutes ago)

KTKI 190453Z AUTO 06005KT 10SM CLR 26/21 A3007 RMK AO2 SLP178 T02610206

Closest aviation forecast (TAF) to Lavon North Airport

Forecast is more than 6 hours old.

Closest forecast is NAS Fort Worth JRB / Carswell Field, 51.7 nm (95.7 km) WSW.

2024/07/18 17:36 Ammendment (retrieved 12 hours ago)

TAF AMD KNFW 1817/1915 VRB06KT 9999 SCT035 SCT250 QNH3005INS FM181800 35015G20KT 9999 VCTS FEW060CB FEW250 QNH2996INS FM182100 04012G18KT 9999 FEW070 QNH2992INS FM190300 08012KT 9999 SCT030 SCT060 QNH3000INS FM190900 VRB06KT 9999 BKN022 BKN045 QNH3002INS TX34/1821Z TN22/1912Z AMD 1730 FN20046